Time;durP1;ratioP1;P1;durP2;ratioP2;P2;SDS_P1;SDS_P2;PMS_P1;PMS_P2;Temp;Humidity;BMP_temperature;BMP_pressure;BME280_temperature;BME280_humidity;BME280_pressure;Samples;Min_cycle;Max_cycle;Signal;HPM_P1;HPM_P2
2023/04/09 00:02:13;;;;;;;793.10;731.97;;;6.60;99.90;;;;;;5033182;28;20448;-76
2023/04/09 00:04:41;;;;;;;806.23;743.53;;;6.50;99.90;;;;;;5032965;28;20539;-76
2023/04/09 00:07:08;;;;;;;817.93;753.23;;;6.50;99.90;;;;;;5033427;28;20527;-76
2023/04/09 00:09:35;;;;;;;819.07;752.80;;;6.40;99.90;;;;;;5032969;28;20538;-76
2023/04/09 00:12:02;;;;;;;834.10;767.70;;;6.50;99.90;;;;;;5039769;28;20490;-76
2023/04/09 00:14:29;;;;;;;838.63;771.67;;;6.40;99.90;;;;;;5052455;28;20909;-76
2023/04/09 00:16:56;;;;;;;839.90;772.63;;;6.50;99.90;;;;;;5050740;28;20877;-76
2023/04/09 00:19:23;;;;;;;823.13;756.30;;;6.30;99.90;;;;;;5052159;28;20521;-75
2023/04/09 00:21:51;;;;;;;806.17;740.87;;;6.40;99.90;;;;;;5047580;28;20451;-75
2023/04/09 00:24:18;;;;;;;818.97;753.40;;;6.50;99.90;;;;;;5032540;28;20463;-76
2023/04/09 00:26:45;;;;;;;812.90;748.23;;;6.50;99.90;;;;;;5033017;28;20451;-76
2023/04/09 00:29:12;;;;;;;819.43;752.37;;;6.40;99.90;;;;;;5032210;28;20479;-76
2023/04/09 00:31:39;;;;;;;817.23;750.70;;;6.40;99.90;;;;;;5040134;28;20535;-76
2023/04/09 00:34:09;;;;;;;819.30;751.53;;;6.30;99.90;;;;;;5051807;28;20459;-76
2023/04/09 00:36:36;;;;;;;821.63;754.00;;;6.40;99.90;;;;;;5044484;28;20476;-77
2023/04/09 00:39:04;;;;;;;821.23;753.93;;;6.40;99.90;;;;;;5032086;28;20478;-77
2023/04/09 00:41:31;;;;;;;828.27;761.23;;;6.30;99.90;;;;;;5038477;28;20447;-76
2023/04/09 00:44:00;;;;;;;823.70;758.00;;;6.20;99.90;;;;;;5052108;28;20459;-76
2023/04/09 00:46:27;;;;;;;822.43;758.93;;;6.10;99.90;;;;;;5046859;28;20449;-76
2023/04/09 00:48:54;;;;;;;828.57;765.87;;;5.80;99.90;;;;;;5032692;28;20472;-76
2023/04/09 00:51:21;;;;;;;837.93;776.10;;;5.60;99.90;;;;;;5036119;28;20479;-77
2023/04/09 00:53:48;;;;;;;827.67;761.77;;;5.40;99.90;;;;;;5046353;28;20448;-76
2023/04/09 00:56:18;;;;;;;828.37;764.10;;;5.30;99.90;;;;;;5034136;28;20838;-76
2023/04/09 00:58:47;;;;;;;829.57;765.47;;;5.00;99.90;;;;;;5051774;28;20505;-76
2023/04/09 01:01:14;;;;;;;847.00;782.40;;;4.90;99.90;;;;;;5041395;28;20811;-76
2023/04/09 01:03:41;;;;;;;845.23;780.93;;;4.80;99.90;;;;;;5031878;28;20837;-76
2023/04/09 01:06:14;;;;;;;832.57;771.47;;;4.70;99.90;;;;;;5040629;28;20451;-76
2023/04/09 01:08:48;;;;;;;841.63;778.63;;;4.70;99.90;;;;;;5051899;28;20854;-77
2023/04/09 01:11:25;;;;;;;839.93;775.07;;;4.60;99.90;;;;;;5041924;28;20539;-76
2023/04/09 01:13:59;;;;;;;855.40;785.10;;;4.50;99.90;;;;;;5031957;28;20458;-76
2023/04/09 01:16:29;;;;;;;858.80;786.13;;;4.40;99.90;;;;;;5041822;28;20466;-76
2023/04/09 01:19:01;;;;;;;870.27;794.13;;;4.30;99.90;;;;;;5051804;28;20482;-76
2023/04/09 01:21:31;;;;;;;864.80;788.40;;;4.10;99.90;;;;;;5050979;28;20538;-76
2023/04/09 01:24:09;;;;;;;870.57;792.87;;;4.00;99.90;;;;;;5051900;28;20463;-76
2023/04/09 01:26:56;;;;;;;868.13;791.50;;;4.10;99.90;;;;;;5040930;28;20448;-76
2023/04/09 01:29:26;;;;;;;864.07;786.93;;;4.10;99.90;;;;;;5031886;28;20468;-76
2023/04/09 01:31:57;;;;;;;863.27;786.23;;;4.10;99.90;;;;;;5031359;28;20531;-77
2023/04/09 01:34:26;;;;;;;853.57;775.10;;;4.10;99.90;;;;;;5031904;28;20834;-76
2023/04/09 01:36:57;;;;;;;849.67;777.90;;;4.10;99.90;;;;;;5051586;28;20485;-76
2023/04/09 01:39:25;;;;;;;839.17;764.70;;;4.10;99.90;;;;;;5051147;28;20471;-76
2023/04/09 01:41:52;;;;;;;842.43;763.93;;;4.20;99.90;;;;;;5031342;28;20452;-76
2023/04/09 01:44:20;;;;;;;830.53;752.67;;;4.20;99.90;;;;;;5032532;28;20455;-76
2023/04/09 01:46:49;;;;;;;844.83;761.20;;;4.20;99.90;;;;;;5039170;28;20959;-76
2023/04/09 01:49:19;;;;;;;835.57;753.80;;;4.20;99.90;;;;;;5055527;28;20563;-76
2023/04/09 01:51:47;;;;;;;837.83;753.37;;;4.40;99.90;;;;;;5036876;28;20452;-76
2023/04/09 01:54:15;;;;;;;846.47;760.27;;;4.40;99.90;;;;;;5035028;28;20452;-77
2023/04/09 01:56:43;;;;;;;853.33;765.90;;;4.30;99.90;;;;;;5035502;28;20472;-77
2023/04/09 01:59:10;;;;;;;861.30;773.80;;;4.40;99.90;;;;;;5037610;28;21017;-77
2023/04/09 02:01:46;;;;;;;844.77;757.23;;;4.40;99.90;;;;;;5055207;28;20455;-76
2023/04/09 02:04:21;;;;;;;846.00;757.13;;;4.40;99.90;;;;;;5055163;28;20450;-76
2023/04/09 02:06:55;;;;;;;847.77;759.00;;;4.60;99.90;;;;;;5054996;28;20942;-77
2023/04/09 02:09:24;;;;;;;863.87;775.17;;;4.60;99.90;;;;;;5053192;28;20499;-76
2023/04/09 02:11:51;;;;;;;864.33;775.60;;;4.60;99.90;;;;;;5041151;28;20448;-77
2023/04/09 02:14:20;;;;;;;862.37;772.67;;;4.50;99.90;;;;;;5034547;28;20458;-76
2023/04/09 02:16:48;;;;;;;870.70;782.57;;;4.50;99.90;;;;;;5035176;28;20987;-76
2023/04/09 02:19:16;;;;;;;860.30;771.07;;;4.50;99.90;;;;;;5034944;28;20472;-76
2023/04/09 02:21:43;;;;;;;841.97;752.93;;;4.50;99.90;;;;;;5046079;28;20453;-76
2023/04/09 02:24:10;;;;;;;846.07;756.70;;;4.40;99.90;;;;;;5054802;28;20455;-77
2023/04/09 02:26:37;;;;;;;838.43;749.17;;;4.30;99.90;;;;;;5044383;28;20545;-76
2023/04/09 02:29:04;;;;;;;858.13;767.97;;;4.10;99.90;;;;;;5040733;28;20475;-76
2023/04/09 02:31:31;;;;;;;852.97;763.30;;;4.00;99.90;;;;;;5052896;28;20451;-76
2023/04/09 02:33:58;;;;;;;842.80;754.67;;;4.00;99.90;;;;;;5049613;28;20889;-77
2023/04/09 02:36:26;;;;;;;852.97;762.47;;;3.80;99.90;;;;;;5034258;28;20943;-76
2023/04/09 02:38:53;;;;;;;875.43;782.93;;;3.80;99.90;;;;;;5034374;28;20472;-76
2023/04/09 02:41:20;;;;;;;852.30;760.53;;;3.90;99.90;;;;;;5034481;28;20510;-76
2023/04/09 02:43:47;;;;;;;865.73;773.77;;;3.80;99.90;;;;;;5034778;28;20455;-77
2023/04/09 02:46:13;;;;;;;862.60;769.63;;;3.80;99.90;;;;;;5046767;28;20451;-77
2023/04/09 02:48:40;;;;;;;871.57;778.60;;;3.80;99.90;;;;;;5054424;28;20463;-76
2023/04/09 02:51:07;;;;;;;857.17;764.23;;;3.70;99.90;;;;;;5053709;28;20458;-76
2023/04/09 02:53:36;;;;;;;862.77;770.27;;;3.70;99.90;;;;;;5054138;28;20462;-76
2023/04/09 02:56:03;;;;;;;852.50;760.37;;;3.70;99.90;;;;;;5052849;28;20942;-77
2023/04/09 02:58:30;;;;;;;840.40;748.57;;;3.70;99.90;;;;;;5054071;28;20463;-77
2023/04/09 03:00:57;;;;;;;831.30;736.50;;;3.70;99.90;;;;;;5044765;28;20444;-76
2023/04/09 03:03:24;;;;;;;855.50;761.50;;;3.70;99.90;;;;;;5034010;28;20452;-76
2023/04/09 03:05:51;;;;;;;845.03;752.40;;;3.80;99.90;;;;;;5041654;28;20458;-76
2023/04/09 03:08:18;;;;;;;839.53;747.43;;;3.60;99.90;;;;;;5053665;28;20468;-78
2023/04/09 03:10:46;;;;;;;847.30;755.77;;;3.50;99.90;;;;;;5047087;28;20535;-76
2023/04/09 03:13:13;;;;;;;829.13;737.87;;;3.50;99.90;;;;;;5033996;28;20458;-76
2023/04/09 03:15:40;;;;;;;825.47;734.27;;;3.30;99.90;;;;;;5048112;28;20447;-76
2023/04/09 03:18:07;;;;;;;836.50;744.67;;;3.20;99.90;;;;;;5053592;28;21005;-76
2023/04/09 03:20:38;;;;;;;834.33;742.93;;;3.10;99.90;;;;;;5040158;28;20448;-76
2023/04/09 03:23:05;;;;;;;860.03;768.23;;;3.10;99.90;;;;;;5042725;28;21288;-76
2023/04/09 03:25:31;;;;;;;842.47;749.83;;;3.10;99.90;;;;;;5049205;28;20878;-76
2023/04/09 03:28:00;;;;;;;843.83;745.00;;;3.00;99.90;;;;;;5033674;28;20495;-76
2023/04/09 03:30:26;;;;;;;850.03;749.60;;;3.10;99.90;;;;;;5034547;28;20981;-76
2023/04/09 03:32:54;;;;;;;831.47;739.67;;;3.00;99.90;;;;;;5049917;28;20483;-76
2023/04/09 03:35:21;;;;;;;847.10;753.60;;;3.00;99.90;;;;;;5053069;28;20543;-76
2023/04/09 03:37:50;;;;;;;847.53;742.47;;;2.90;99.90;;;;;;5052430;28;20479;-76
2023/04/09 03:40:17;;;;;;;863.57;769.67;;;2.80;99.90;;;;;;5033292;28;21125;-76
2023/04/09 03:42:44;;;;;;;846.93;747.70;;;2.80;99.90;;;;;;5041129;28;20455;-76
2023/04/09 03:45:14;;;;;;;847.40;753.20;;;2.90;99.90;;;;;;5052916;28;20451;-76
2023/04/09 03:47:41;;;;;;;858.63;764.03;;;2.90;99.90;;;;;;5040506;28;20515;-76
2023/04/09 03:50:14;;;;;;;840.03;737.20;;;2.80;99.90;;;;;;5035580;28;20450;-76
2023/04/09 03:52:41;;;;;;;843.67;750.17;;;2.70;99.90;;;;;;5053196;28;20455;-76
2023/04/09 03:55:12;;;;;;;840.90;747.17;;;2.50;99.90;;;;;;5050487;28;20458;-75
2023/04/09 03:57:38;;;;;;;863.30;753.63;;;2.50;99.90;;;;;;5033127;28;20483;-76
2023/04/09 04:00:07;;;;;;;870.60;759.73;;;2.60;99.90;;;;;;5034236;28;20855;-76
2023/04/09 04:02:37;;;;;;;863.67;765.77;;;2.90;99.90;;;;;;5045701;28;20990;-76
2023/04/09 04:05:05;;;;;;;854.20;756.60;;;2.70;99.90;;;;;;5043573;28;20452;-76
2023/04/09 04:07:32;;;;;;;872.80;778.33;;;2.60;99.90;;;;;;5048761;28;21030;-75
2023/04/09 04:09:59;;;;;;;868.93;772.77;;;2.50;99.90;;;;;;5052450;28;20828;-76
2023/04/09 04:12:26;;;;;;;884.27;769.80;;;2.70;99.90;;;;;;5052626;28;20470;-76
2023/04/09 04:14:53;;;;;;;868.97;756.50;;;2.50;99.90;;;;;;5052411;28;20451;-77
2023/04/09 04:17:20;;;;;;;868.80;758.67;;;2.60;99.90;;;;;;5034712;28;20472;-76
2023/04/09 04:19:48;;;;;;;888.10;755.03;;;2.50;99.90;;;;;;5035557;28;20500;-77
2023/04/09 04:22:15;;;;;;;862.07;766.50;;;2.40;99.90;;;;;;5039265;28;20455;-76
2023/04/09 04:24:42;;;;;;;856.97;760.20;;;2.30;99.90;;;;;;5040358;28;20451;-76
2023/04/09 04:27:08;;;;;;;863.17;768.40;;;2.30;99.90;;;;;;5050559;28;20981;-76
2023/04/09 04:29:36;;;;;;;849.37;755.03;;;2.20;99.90;;;;;;5051813;28;20467;-76
2023/04/09 04:32:03;;;;;;;860.57;750.90;;;2.20;99.90;;;;;;5050817;28;20495;-76
2023/04/09 04:34:30;;;;;;;856.50;760.57;;;2.10;99.90;;;;;;5052270;28;20455;-76
2023/04/09 04:36:58;;;;;;;851.10;756.47;;;2.00;99.90;;;;;;5051991;28;20485;-76
2023/04/09 04:39:25;;;;;;;845.03;750.40;;;2.00;99.90;;;;;;5038443;28;20472;-76
2023/04/09 04:41:52;;;;;;;844.47;751.10;;;1.90;99.90;;;;;;5033175;28;21026;-76
2023/04/09 04:44:19;;;;;;;852.87;756.00;;;1.90;99.90;;;;;;5040335;28;20967;-76
2023/04/09 04:46:45;;;;;;;856.30;761.80;;;1.90;99.90;;;;;;5040635;28;20448;-77
2023/04/09 04:49:12;;;;;;;869.47;775.43;;;1.80;99.90;;;;;;5049266;28;20474;-76
2023/04/09 04:51:39;;;;;;;869.60;766.83;;;1.80;99.90;;;;;;5051993;28;20563;-77
2023/04/09 04:54:07;;;;;;;853.47;757.83;;;1.70;99.90;;;;;;5041318;28;20475;-76
2023/04/09 04:56:34;;;;;;;859.67;765.37;;;1.70;99.90;;;;;;5033000;28;20453;-76
2023/04/09 04:59:01;;;;;;;854.40;753.10;;;1.70;99.90;;;;;;5035547;28;20996;-76
2023/04/09 05:01:30;;;;;;;851.93;758.67;;;1.70;99.90;;;;;;5047522;28;20908;-76
2023/04/09 05:03:57;;;;;;;848.63;756.67;;;1.80;99.90;;;;;;5051715;28;20451;-76
2023/04/09 05:06:25;;;;;;;840.47;748.47;;;1.70;99.90;;;;;;5050485;28;20453;-76
2023/04/09 05:08:53;;;;;;;836.87;744.60;;;1.80;99.90;;;;;;5051231;28;20983;-76
2023/04/09 05:11:34;;;;;;;836.67;744.43;;;1.70;99.90;;;;;;5045108;28;20452;-80
2023/04/09 05:14:01;;;;;;;840.07;747.57;;;1.80;99.90;;;;;;5033733;28;20455;-76
2023/04/09 05:16:28;;;;;;;852.13;759.43;;;1.80;99.90;;;;;;5037554;28;20446;-76
2023/04/09 05:18:54;;;;;;;856.97;762.73;;;1.90;99.90;;;;;;5053298;28;20474;-77
2023/04/09 05:21:21;;;;;;;859.70;764.50;;;1.90;99.90;;;;;;5048986;28;20454;-76
2023/04/09 05:23:48;;;;;;;860.13;763.60;;;2.00;99.90;;;;;;5055460;28;20447;-76
2023/04/09 05:26:15;;;;;;;863.40;768.47;;;2.00;99.90;;;;;;5055604;28;20926;-76
2023/04/09 05:28:43;;;;;;;862.40;767.53;;;2.10;99.90;;;;;;5055881;28;20562;-76
2023/04/09 05:31:11;;;;;;;852.17;759.77;;;2.10;99.90;;;;;;5055897;28;20451;-76
2023/04/09 05:33:38;;;;;;;858.70;764.63;;;2.10;99.90;;;;;;5055350;28;20458;-76
2023/04/09 05:36:06;;;;;;;871.70;765.73;;;2.10;99.90;;;;;;5038010;28;20448;-75
2023/04/09 05:38:33;;;;;;;859.83;765.10;;;2.20;99.90;;;;;;5051999;28;20467;-76
2023/04/09 05:41:00;;;;;;;855.50;758.33;;;2.30;99.90;;;;;;5037335;28;20460;-76
2023/04/09 05:43:30;;;;;;;845.67;751.90;;;2.30;99.90;;;;;;5049074;28;20447;-75
2023/04/09 05:45:58;;;;;;;854.10;757.80;;;2.30;99.90;;;;;;5051396;28;20452;-75
2023/04/09 05:48:25;;;;;;;846.00;753.40;;;2.40;99.90;;;;;;5043406;28;20475;-76
2023/04/09 05:50:55;;;;;;;848.93;754.90;;;2.50;99.90;;;;;;5053121;28;20457;-76
2023/04/09 05:53:52;;;;;;;865.63;764.83;;;2.70;99.90;;;;;;5040883;28;20531;-76
2023/04/09 05:56:22;;;;;;;866.87;770.10;;;2.70;99.90;;;;;;5035219;28;20471;-76
2023/04/09 05:58:50;;;;;;;866.17;771.03;;;2.80;99.90;;;;;;5050907;28;20466;-76
2023/04/09 06:01:19;;;;;;;868.47;770.63;;;2.90;99.90;;;;;;5052939;28;20447;-76
2023/04/09 06:03:46;;;;;;;857.33;762.73;;;2.90;99.90;;;;;;5049865;28;20452;-76
2023/04/09 06:06:21;;;;;;;866.00;770.67;;;3.10;99.90;;;;;;5036923;28;20463;-76
2023/04/09 06:08:50;;;;;;;860.43;764.03;;;3.20;99.90;;;;;;5049126;28;20475;-76
2023/04/09 06:11:17;;;;;;;855.60;760.97;;;3.30;99.90;;;;;;5033727;28;20466;-76
2023/04/09 06:13:48;;;;;;;859.03;764.53;;;3.40;99.90;;;;;;5041649;28;20451;-76
2023/04/09 06:16:18;;;;;;;861.83;765.30;;;3.50;99.90;;;;;;5053448;28;20490;-76
2023/04/09 06:18:48;;;;;;;841.80;750.17;;;3.50;99.90;;;;;;5054084;28;20463;-76
2023/04/09 06:21:27;;;;;;;835.90;744.80;;;3.60;99.90;;;;;;5055391;28;20474;-76
2023/04/09 06:23:56;;;;;;;858.70;751.57;;;3.80;99.90;;;;;;5039111;28;20462;-75
2023/04/09 06:26:23;;;;;;;863.60;757.50;;;4.10;99.90;;;;;;5055455;28;20503;-76
2023/04/09 06:28:51;;;;;;;849.53;755.97;;;4.40;99.90;;;;;;5047488;28;20481;-76
2023/04/09 06:31:19;;;;;;;854.93;760.07;;;4.60;99.90;;;;;;5038590;28;21098;-76
2023/04/09 06:33:46;;;;;;;861.77;756.27;;;4.70;99.90;;;;;;5034919;28;20456;-76
2023/04/09 06:36:17;;;;;;;857.50;761.70;;;4.80;99.90;;;;;;5035630;28;20539;-76
2023/04/09 06:38:52;;;;;;;866.53;767.00;;;4.90;99.90;;;;;;5049339;28;20546;-76
2023/04/09 06:41:21;;;;;;;862.53;768.77;;;5.10;99.90;;;;;;5052897;28;20459;-76
2023/04/09 06:43:51;;;;;;;856.40;762.53;;;5.20;99.90;;;;;;5038843;28;20451;-76
2023/04/09 06:46:20;;;;;;;858.00;765.80;;;5.30;99.90;;;;;;5034422;28;20452;-76
2023/04/09 06:48:47;;;;;;;861.87;769.37;;;5.50;99.90;;;;;;5036517;28;20506;-76
2023/04/09 06:51:14;;;;;;;851.07;759.43;;;5.60;99.90;;;;;;5049493;28;20521;-76
2023/04/09 06:53:43;;;;;;;841.23;750.10;;;5.70;99.90;;;;;;5045909;28;20457;-76
2023/04/09 06:56:16;;;;;;;824.10;735.57;;;5.80;99.90;;;;;;5038265;28;20452;-79
2023/04/09 06:58:43;;;;;;;824.10;734.90;;;5.90;99.90;;;;;;5049432;28;20889;-76
2023/04/09 07:01:11;;;;;;;791.20;708.70;;;6.00;99.90;;;;;;5032342;28;20478;-76
2023/04/09 07:03:42;;;;;;;777.33;695.20;;;6.20;99.90;;;;;;5039721;28;20504;-79
2023/04/09 07:06:09;;;;;;;739.20;665.20;;;6.20;99.90;;;;;;5047809;28;20918;-76
2023/04/09 07:08:37;;;;;;;735.42;663.95;;;6.30;99.90;;;;;;5034570;28;20453;-76
2023/04/09 07:11:04;;;;;;;714.87;644.23;;;6.40;99.90;;;;;;5035010;28;20584;-75
2023/04/09 07:13:32;;;;;;;702.40;631.90;;;6.50;99.90;;;;;;5040536;28;20517;-76
2023/04/09 07:15:59;;;;;;;705.57;635.33;;;6.70;99.90;;;;;;5053724;28;20483;-76
2023/04/09 07:18:25;;;;;;;706.93;641.90;;;6.70;99.90;;;;;;5040316;28;21065;-76
2023/04/09 07:20:54;;;;;;;703.37;638.87;;;6.90;99.90;;;;;;5049780;28;20447;-76
2023/04/09 07:23:23;;;;;;;687.00;629.20;;;6.90;99.90;;;;;;5038250;28;20903;-77
2023/04/09 07:25:50;;;;;;;697.83;640.60;;;7.10;99.90;;;;;;5036718;28;20451;-76
2023/04/09 07:28:17;;;;;;;714.17;655.00;;;7.10;99.90;;;;;;5051698;28;20502;-76
2023/04/09 07:30:45;;;;;;;701.77;645.93;;;7.30;99.90;;;;;;5033757;28;20456;-76
2023/04/09 07:33:12;;;;;;;689.07;635.37;;;7.30;99.90;;;;;;5049478;28;20574;-76
2023/04/09 07:35:38;;;;;;;675.30;624.20;;;7.40;99.90;;;;;;5053491;28;20447;-75
2023/04/09 07:38:08;;;;;;;595.50;557.90;;;7.60;99.90;;;;;;5043233;28;20476;-76
2023/04/09 07:43:04;;;;;;;501.07;474.97;;;7.80;99.90;;;;;;5030682;28;20531;-80
2023/04/09 07:45:32;;;;;;;375.33;359.13;;;7.90;99.90;;;;;;5013495;28;20532;-82
2023/04/09 07:47:59;;;;;;;274.80;263.00;;;8.10;99.90;;;;;;5014365;28;20464;-80
2023/04/09 07:50:26;;;;;;;94.67;89.67;;;8.20;99.90;;;;;;5032766;28;20537;-80
2023/04/09 07:52:54;;;;;;;20.10;14.00;;;8.30;99.90;;;;;;5031267;28;20449;-79
2023/04/09 07:55:23;;;;;;;24.23;18.47;;;8.40;99.90;;;;;;5028735;28;20452;-80
2023/04/09 07:57:51;;;;;;;28.00;19.90;;;8.60;99.90;;;;;;5021787;28;20464;-80
2023/04/09 08:00:18;;;;;;;22.70;12.77;;;8.70;99.90;;;;;;5027062;28;20459;-80
2023/04/09 08:02:45;;;;;;;23.47;13.43;;;9.00;99.90;;;;;;5032879;28;20460;-80
2023/04/09 08:05:12;;;;;;;35.90;18.60;;;9.20;99.90;;;;;;5024566;28;20456;-80
2023/04/09 08:07:39;;;;;;;26.23;14.97;;;9.60;99.90;;;;;;5013364;28;20461;-77
2023/04/09 08:10:07;;;;;;;22.10;10.60;;;9.90;99.90;;;;;;5013406;28;20485;-80
2023/04/09 08:12:36;;;;;;;21.00;11.23;;;10.20;99.90;;;;;;5023470;28;20821;-80
2023/04/09 08:15:05;;;;;;;21.63;11.97;;;10.50;99.90;;;;;;5011638;28;20460;-80
2023/04/09 08:17:35;;;;;;;16.63;10.33;;;10.90;99.90;;;;;;5026246;28;20964;-81
2023/04/09 08:20:02;;;;;;;16.10;10.60;;;11.20;99.90;;;;;;5015980;28;20515;-78
2023/04/09 08:22:31;;;;;;;20.47;11.60;;;11.50;99.90;;;;;;5019183;28;20458;-78
2023/04/09 08:24:58;;;;;;;16.63;8.57;;;11.90;99.90;;;;;;5019128;28;20851;-78
2023/04/09 08:27:26;;;;;;;17.80;8.97;;;12.00;99.90;;;;;;5032466;28;20463;-78
2023/04/09 08:29:54;;;;;;;19.87;9.67;;;12.20;99.90;;;;;;5026964;28;20527;-78
2023/04/09 08:32:22;;;;;;;20.93;9.07;;;12.30;99.90;;;;;;5025177;28;20500;-81
2023/04/09 08:34:49;;;;;;;15.93;11.33;;;12.50;99.30;;;;;;5028656;28;20450;-78
2023/04/09 08:37:16;;;;;;;14.90;9.40;;;12.70;98.70;;;;;;5015054;28;20487;-78
2023/04/09 08:39:43;;;;;;;15.60;8.50;;;12.70;95.40;;;;;;5021299;28;20480;-78
2023/04/09 08:42:11;;;;;;;15.63;9.37;;;12.90;96.10;;;;;;5021470;28;20848;-78
2023/04/09 08:44:39;;;;;;;15.07;9.30;;;13.30;96.00;;;;;;5012880;28;20458;-79
2023/04/09 08:47:10;;;;;;;14.13;8.83;;;13.80;94.50;;;;;;5031173;28;20462;-78
2023/04/09 08:49:39;;;;;;;14.90;8.60;;;14.00;92.60;;;;;;5015030;28;20513;-78
2023/04/09 08:52:07;;;;;;;13.90;7.27;;;14.10;90.50;;;;;;5022579;28;20456;-79
2023/04/09 08:54:34;;;;;;;14.17;8.00;;;14.10;88.00;;;;;;5016385;28;20459;-79
2023/04/09 08:57:05;;;;;;;15.73;8.00;;;14.20;86.40;;;;;;5028245;28;20809;-79
2023/04/09 08:59:35;;;;;;;15.33;9.80;;;14.50;90.10;;;;;;5023490;28;20526;-79
2023/04/09 09:02:10;;;;;;;13.03;8.00;;;14.50;83.90;;;;;;5027859;28;20452;-79
2023/04/09 09:04:45;;;;;;;16.10;8.17;;;14.80;81.40;;;;;;5023432;28;20456;-79
2023/04/09 09:07:13;;;;;;;14.50;8.50;;;15.10;81.60;;;;;;5031462;28;20494;-79
2023/04/09 09:09:52;;;;;;;14.20;8.60;;;15.00;77.20;;;;;;5031702;28;20555;-79
2023/04/09 09:12:38;;;;;;;11.70;6.57;;;15.10;75.20;;;;;;5022218;28;20450;-79
2023/04/09 09:15:06;;;;;;;13.30;9.77;;;15.40;74.00;;;;;;5013932;28;20466;-79
2023/04/09 09:17:54;;;;;;;16.00;9.00;;;16.00;74.30;;;;;;5021151;28;20534;-81
2023/04/09 09:20:22;;;;;;;11.67;8.03;;;16.40;68.30;;;;;;5025707;28;20489;-79
2023/04/09 09:22:50;;;;;;;16.43;7.80;;;16.40;66.30;;;;;;5030718;28;20456;-78
2023/04/09 09:25:21;;;;;;;12.53;7.13;;;16.40;63.10;;;;;;5027529;28;20453;-79
2023/04/09 09:27:48;;;;;;;13.70;6.70;;;16.40;61.40;;;;;;5011921;28;21014;-79
2023/04/09 09:30:22;;;;;;;11.47;6.20;;;17.00;59.10;;;;;;5022651;28;20455;-78
2023/04/09 09:32:52;;;;;;;13.13;7.60;;;17.30;53.60;;;;;;5025809;28;20461;-79
2023/04/09 09:35:19;;;;;;;11.87;6.60;;;17.60;51.30;;;;;;5031768;28;20505;-79
2023/04/09 09:37:46;;;;;;;10.97;6.33;;;17.10;47.10;;;;;;5025211;28;20540;-79
2023/04/09 09:40:26;;;;;;;11.37;5.80;;;17.10;45.20;;;;;;5023905;28;20478;-79
2023/04/09 09:42:55;;;;;;;9.30;5.07;;;16.90;43.80;;;;;;5024450;28;20460;-79
2023/04/09 09:45:23;;;;;;;9.63;5.30;;;17.10;41.70;;;;;;5015090;28;20514;-79
2023/04/09 09:48:06;;;;;;;11.30;5.17;;;17.20;39.10;;;;;;5021223;28;20500;-86
2023/04/09 09:50:35;;;;;;;11.40;6.53;;;17.30;32.80;;;;;;5029828;28;20474;-79
2023/04/09 09:53:04;;;;;;;10.63;4.63;;;17.70;33.20;;;;;;5030597;28;20815;-79
2023/04/09 09:55:41;;;;;;;8.57;4.50;;;17.90;25.50;;;;;;5029238;28;20514;-82
2023/04/09 09:58:16;;;;;;;7.57;4.20;;;17.80;27.50;;;;;;5027038;28;20476;-83
2023/04/09 10:00:47;;;;;;;9.77;4.90;;;17.70;28.20;;;;;;5029303;28;20463;-83
2023/04/09 10:03:22;;;;;;;11.23;6.00;;;18.10;33.50;;;;;;5028753;28;20491;-83
2023/04/09 10:05:50;;;;;;;12.30;5.73;;;18.20;28.70;;;;;;5032586;28;20537;-83
2023/04/09 10:08:19;;;;;;;10.13;6.00;;;18.00;25.60;;;;;;5031769;28;21032;-83
2023/04/09 10:10:47;;;;;;;9.70;5.47;;;18.50;25.90;;;;;;5031351;28;20473;-82
2023/04/09 10:13:20;;;;;;;11.43;6.03;;;18.60;22.70;;;;;;5033255;28;20953;-82
2023/04/09 10:15:48;;;;;;;12.10;6.90;;;19.00;26.30;;;;;;5031932;28;20536;-79
2023/04/09 10:18:17;;;;;;;10.57;5.10;;;19.00;24.50;;;;;;5029450;28;20216;-79
2023/04/09 10:20:51;;;;;;;10.13;5.23;;;19.10;19.10;;;;;;5034458;28;20448;-79
2023/04/09 10:23:24;;;;;;;9.13;5.00;;;19.50;19.30;;;;;;5033960;28;20449;-79
2023/04/09 10:25:51;;;;;;;9.43;5.60;;;19.40;16.50;;;;;;5034246;28;20458;-79
2023/04/09 10:28:18;;;;;;;9.00;5.07;;;19.30;14.10;;;;;;5031176;28;20494;-79
2023/04/09 10:30:46;;;;;;;11.33;5.60;;;18.90;18.00;;;;;;5030182;28;21019;-79
2023/04/09 10:33:25;;;;;;;8.63;4.90;;;19.20;15.90;;;;;;5034407;28;20895;-79
2023/04/09 10:35:53;;;;;;;9.20;5.50;;;19.10;15.70;;;;;;5030462;28;20513;-80
2023/04/09 10:38:39;;;;;;;10.50;5.13;;;19.90;17.20;;;;;;5032508;28;21043;-79
2023/04/09 10:41:15;;;;;;;12.30;6.17;;;19.00;16.20;;;;;;5030467;28;20462;-80
2023/04/09 10:43:43;;;;;;;10.33;5.50;;;19.00;20.10;;;;;;5023500;28;20453;-79
2023/04/09 10:46:26;;;;;;;11.80;6.53;;;19.10;17.00;;;;;;5031364;28;20877;-80
2023/04/09 10:49:17;;;;;;;9.60;5.50;;;20.20;18.00;;;;;;5031264;28;20483;-80
2023/04/09 10:51:51;;;;;;;9.60;5.53;;;20.60;10.60;;;;;;5045231;28;20453;-80
2023/04/09 10:54:44;;;;;;;10.13;5.87;;;21.00;10.10;;;;;;5024228;28;20488;-79
2023/04/09 10:57:13;;;;;;;12.37;6.43;;;21.40;8.70;;;;;;5032435;28;20502;-80
2023/04/09 10:59:41;;;;;;;9.23;5.23;;;20.90;5.20;;;;;;5026455;28;20850;-79
2023/04/09 11:02:12;;;;;;;10.47;5.73;;;20.70;5.70;;;;;;5030178;28;20452;-78
2023/04/09 11:05:02;;;;;;;9.17;4.73;;;21.00;6.30;;;;;;5022681;28;20466;-79
2023/04/09 11:07:33;;;;;;;10.20;6.10;;;19.60;5.00;;;;;;5027527;28;20464;-79
2023/04/09 11:09:59;;;;;;;9.87;5.60;;;19.50;9.50;;;;;;5028055;28;20474;-79
2023/04/09 11:12:27;;;;;;;9.77;5.73;;;20.30;12.40;;;;;;5031433;28;20450;-78
2023/04/09 11:14:53;;;;;;;9.70;5.27;;;20.80;5.10;;;;;;5033689;28;20516;-79
2023/04/09 11:17:20;;;;;;;12.13;6.07;;;21.70;5.80;;;;;;5033480;28;20455;-79
2023/04/09 11:19:49;;;;;;;10.60;5.93;;;21.90;5.90;;;;;;5033712;28;20472;-79
2023/04/09 11:22:16;;;;;;;10.13;5.27;;;22.80;1.10;;;;;;5033770;28;20459;-79
2023/04/09 11:24:43;;;;;;;12.87;6.10;;;23.00;1.70;;;;;;5031389;28;20552;-79
2023/04/09 11:27:10;;;;;;;12.70;6.30;;;22.70;1.10;;;;;;5033633;28;20552;-79
2023/04/09 11:29:41;;;;;;;10.37;6.53;;;23.00;1.00;;;;;;5028337;28;20469;-80
2023/04/09 11:32:08;;;;;;;12.50;7.00;;;22.80;1.00;;;;;;5016118;28;20526;-80
2023/04/09 11:34:35;;;;;;;9.67;6.00;;;22.90;1.00;;;;;;5028849;28;20820;-80
2023/04/09 11:37:08;;;;;;;11.60;6.43;;;22.90;1.00;;;;;;5032424;28;20506;-80
2023/04/09 11:39:37;;;;;;;12.53;5.83;;;23.50;1.00;;;;;;5033362;28;20472;-80
2023/04/09 11:42:04;;;;;;;10.50;6.93;;;23.50;1.00;;;;;;5033767;28;20497;-80
2023/04/09 11:44:31;;;;;;;10.03;5.63;;;23.10;1.00;;;;;;5034014;28;20526;-80
2023/04/09 11:47:00;;;;;;;9.83;5.10;;;22.50;1.00;;;;;;5033094;28;20456;-80
2023/04/09 11:49:27;;;;;;;10.40;5.43;;;22.30;1.00;;;;;;5034770;28;20558;-80
2023/04/09 11:51:57;;;;;;;11.50;6.40;;;22.60;1.00;;;;;;5035262;28;20462;-80
2023/04/09 11:54:32;;;;;;;9.40;6.23;;;23.10;1.00;;;;;;5033712;28;20484;-80
2023/04/09 11:57:00;;;;;;;21.83;7.07;;;22.50;1.00;;;;;;5034550;28;20463;-80
2023/04/09 11:59:28;;;;;;;11.50;6.47;;;23.10;1.00;;;;;;5033897;28;20507;-79
2023/04/09 12:01:59;;;;;;;11.30;6.20;;;21.80;1.00;;;;;;5033282;28;20491;-80
2023/04/09 12:04:26;;;;;;;10.03;6.43;;;21.10;1.00;;;;;;5032257;28;20429;-80
2023/04/09 12:06:57;;;;;;;11.70;6.47;;;20.70;1.00;;;;;;5032375;28;20460;-79
2023/04/09 12:09:26;;;;;;;12.03;6.13;;;21.00;1.00;;;;;;5033789;28;20822;-80
2023/04/09 12:11:56;;;;;;;10.97;5.63;;;21.00;1.00;;;;;;5033465;28;20463;-80
2023/04/09 12:14:23;;;;;;;10.00;5.33;;;21.60;1.00;;;;;;5032350;28;20495;-80
2023/04/09 12:16:54;;;;;;;9.07;5.13;;;22.30;1.00;;;;;;5032505;28;20456;-80
2023/04/09 12:19:26;;;;;;;10.67;5.90;;;22.10;1.00;;;;;;5032785;28;20934;-80
2023/04/09 12:21:57;;;;;;;11.43;6.50;;;22.60;1.00;;;;;;5032756;28;20462;-80
2023/04/09 12:24:26;;;;;;;11.10;6.67;;;22.00;1.00;;;;;;5032554;28;20463;-80
2023/04/09 12:26:53;;;;;;;12.03;7.20;;;22.40;1.00;;;;;;5032611;28;20460;-80
2023/04/09 12:29:21;;;;;;;9.27;6.03;;;22.60;1.00;;;;;;5031508;28;20471;-79
2023/04/09 12:31:48;;;;;;;11.60;6.37;;;23.40;1.00;;;;;;5032114;28;20814;-79
2023/04/09 12:34:15;;;;;;;12.20;6.50;;;24.00;1.00;;;;;;5032206;28;20452;-80
2023/04/09 12:36:42;;;;;;;11.17;6.40;;;23.80;1.00;;;;;;5032307;28;20452;-80
2023/04/09 12:39:10;;;;;;;12.23;6.40;;;24.20;1.00;;;;;;5032366;28;20518;-80